Time;durP1;ratioP1;P1;durP2;ratioP2;P2;SDS_P1;SDS_P2;PMS_P1;PMS_P2;Temp;Humidity;BMP_temperature;BMP_pressure;BME280_temperature;BME280_humidity;BME280_pressure;Samples;Min_cycle;Max_cycle;Signal;HPM_P1;HPM_P2
2023/07/18 00:00:25;;;;;;;3.07;1.60;;;;;;;;;;4908319;29;20226;-73
2023/07/18 00:02:50;;;;;;;3.00;1.60;;;;;;;;;;4906401;29;20195;-73
2023/07/18 00:05:16;;;;;;;2.37;1.50;;;;;;;;;;4906993;29;20195;-72
2023/07/18 00:07:41;;;;;;;4.00;1.70;;;;;;;;;;4913031;29;20217;-73
2023/07/18 00:10:08;;;;;;;1.83;1.40;;;;;;;;;;4905440;29;20190;-72
2023/07/18 00:12:34;;;;;;;1.80;1.53;;;;;;;;;;4915714;29;20240;-72
2023/07/18 00:14:59;;;;;;;3.23;2.17;;;;;;;;;;4903664;29;20218;-73
2023/07/18 00:17:25;;;;;;;2.50;1.50;;;;;;;;;;4914168;29;20182;-72
2023/07/18 00:19:50;;;;;;;2.07;1.50;;;;;;;;;;4906836;29;20183;-72
2023/07/18 00:22:15;;;;;;;2.63;1.70;;;;;;;;;;4913229;29;20664;-73
2023/07/18 00:24:40;;;;;;;3.70;1.80;;;;;;;;;;4915049;29;20277;-72
2023/07/18 00:27:05;;;;;;;2.17;1.87;;;;;;;;;;4900255;29;20233;-73
2023/07/18 00:29:31;;;;;;;2.33;1.53;;;;;;;;;;4912239;29;20191;-73
2023/07/18 00:31:57;;;;;;;1.70;1.53;;;;;;;;;;4914022;29;20206;-72
2023/07/18 00:34:22;;;;;;;2.80;1.77;;;;;;;;;;4893576;29;20182;-73
2023/07/18 00:36:47;;;;;;;1.73;1.63;;;;;;;;;;4908293;29;20184;-72
2023/07/18 00:39:12;;;;;;;3.37;1.63;;;;;;;;;;4910038;29;20217;-73
2023/07/18 00:41:38;;;;;;;2.53;1.47;;;;;;;;;;4920676;29;20197;-73
2023/07/18 00:44:04;;;;;;;1.90;1.43;;;;;;;;;;4911105;29;20186;-72
2023/07/18 00:46:29;;;;;;;2.70;1.93;;;;;;;;;;4910333;29;20190;-72
2023/07/18 00:48:54;;;;;;;2.90;1.50;;;;;;;;;;4910483;29;20188;-73
2023/07/18 00:51:19;;;;;;;5.20;1.40;;;;;;;;;;4915894;29;20224;-72
2023/07/18 00:53:45;;;;;;;2.77;1.80;;;;;;;;;;4909334;29;20207;-73
2023/07/18 00:56:10;;;;;;;1.70;1.60;;;;;;;;;;4916107;29;20177;-72
2023/07/18 00:58:35;;;;;;;1.63;1.53;;;;;;;;;;4915309;29;20345;-73
2023/07/18 01:01:01;;;;;;;3.00;1.50;;;;;;;;;;4907055;29;20273;-72
2023/07/18 01:03:27;;;;;;;6.97;1.70;;;;;;;;;;4912660;29;20186;-72
2023/07/18 01:05:53;;;;;;;5.57;1.70;;;;;;;;;;4914516;29;20189;-72
2023/07/18 01:08:18;;;;;;;4.23;1.60;;;;;;;;;;4917984;29;20176;-72
2023/07/18 01:10:44;;;;;;;2.07;1.83;;;;;;;;;;4910655;29;20192;-73
2023/07/18 01:13:09;;;;;;;2.40;1.40;;;;;;;;;;4915170;29;20211;-73
2023/07/18 01:15:34;;;;;;;2.20;1.67;;;;;;;;;;4910847;29;20186;-72
2023/07/18 01:18:06;;;;;;;1.43;1.33;;;;;;;;;;4916360;29;20189;-73
2023/07/18 01:20:33;;;;;;;1.67;1.33;;;;;;;;;;4913952;29;20202;-73
2023/07/18 01:22:58;;;;;;;1.97;1.37;;;;;;;;;;4913003;29;20190;-72
2023/07/18 01:25:24;;;;;;;3.70;1.40;;;;;;;;;;4911805;29;20234;-72
2023/07/18 01:27:50;;;;;;;2.97;2.17;;;;;;;;;;4895454;29;20239;-72
2023/07/18 01:30:16;;;;;;;3.67;1.77;;;;;;;;;;4918719;29;20189;-71
2023/07/18 01:32:42;;;;;;;2.60;1.77;;;;;;;;;;4918320;29;20257;-71
2023/07/18 01:35:08;;;;;;;5.07;1.70;;;;;;;;;;4894735;29;20185;-72
2023/07/18 01:37:34;;;;;;;2.63;1.63;;;;;;;;;;4894501;29;20220;-72
2023/07/18 01:39:59;;;;;;;2.07;1.50;;;;;;;;;;4916375;29;20181;-72
2023/07/18 01:42:25;;;;;;;3.33;1.50;;;;;;;;;;4914162;29;20185;-72
2023/07/18 01:44:50;;;;;;;2.27;1.77;;;;;;;;;;4911406;29;20196;-72
2023/07/18 01:47:15;;;;;;;3.77;2.10;;;;;;;;;;4907574;29;20269;-72
2023/07/18 01:49:40;;;;;;;6.50;1.30;;;;;;;;;;4914729;29;20188;-72
2023/07/18 01:52:06;;;;;;;2.77;1.60;;;;;;;;;;4902062;29;20211;-72
2023/07/18 01:54:31;;;;;;;2.07;1.70;;;;;;;;;;4893597;29;20210;-72
2023/07/18 01:56:57;;;;;;;97.17;8.33;;;;;;;;;;4902377;29;20175;-73
2023/07/18 01:59:22;;;;;;;7.47;2.23;;;;;;;;;;4914746;29;20300;-73
2023/07/18 02:01:47;;;;;;;5.33;1.83;;;;;;;;;;4909962;29;20256;-73
2023/07/18 02:04:12;;;;;;;3.07;1.20;;;;;;;;;;4908240;29;20280;-73
2023/07/18 02:06:38;;;;;;;8.33;2.43;;;;;;;;;;4921622;29;20199;-73
2023/07/18 02:09:04;;;;;;;3.23;1.90;;;;;;;;;;4924169;29;20179;-73
2023/07/18 02:11:29;;;;;;;3.73;1.53;;;;;;;;;;4905767;29;20239;-72
2023/07/18 02:13:54;;;;;;;1.97;1.30;;;;;;;;;;4906075;29;20211;-73
2023/07/18 02:16:20;;;;;;;2.17;1.13;;;;;;;;;;4908060;29;20238;-72
2023/07/18 02:18:45;;;;;;;3.27;1.77;;;;;;;;;;4914334;29;20270;-73
2023/07/18 02:21:10;;;;;;;1.70;1.60;;;;;;;;;;4902979;29;20311;-73
2023/07/18 02:23:35;;;;;;;4.87;2.10;;;;;;;;;;4912474;29;20192;-72
2023/07/18 02:26:01;;;;;;;1.90;1.70;;;;;;;;;;4914550;29;20191;-72
2023/07/18 02:28:26;;;;;;;1.63;1.40;;;;;;;;;;4922888;29;20206;-73
2023/07/18 02:30:52;;;;;;;1.90;1.50;;;;;;;;;;4898543;29;20184;-73
2023/07/18 02:33:17;;;;;;;2.97;1.60;;;;;;;;;;4893376;29;20212;-72
2023/07/18 02:35:47;;;;;;;2.37;1.50;;;;;;;;;;4895218;29;20202;-72
2023/07/18 02:38:12;;;;;;;5.90;1.67;;;;;;;;;;4912770;29;20207;-72
2023/07/18 02:40:37;;;;;;;2.57;1.83;;;;;;;;;;4907571;29;20184;-73
2023/07/18 02:43:02;;;;;;;3.97;1.60;;;;;;;;;;4895161;29;20275;-73
2023/07/18 02:45:27;;;;;;;1.83;1.60;;;;;;;;;;4891520;29;20183;-74
2023/07/18 02:47:53;;;;;;;2.83;1.53;;;;;;;;;;4900142;29;20203;-74
2023/07/18 02:50:19;;;;;;;3.30;1.90;;;;;;;;;;4894662;29;20184;-74
2023/07/18 02:52:44;;;;;;;4.07;1.70;;;;;;;;;;4902941;29;20230;-73
2023/07/18 02:55:09;;;;;;;2.17;1.60;;;;;;;;;;4906792;29;20175;-73
2023/07/18 02:57:35;;;;;;;3.97;1.50;;;;;;;;;;4898310;29;20184;-73
2023/07/18 03:00:00;;;;;;;3.30;1.70;;;;;;;;;;4896914;29;20224;-74
2023/07/18 03:02:28;;;;;;;3.50;1.57;;;;;;;;;;4887413;29;20193;-73
2023/07/18 03:04:53;;;;;;;10.97;1.60;;;;;;;;;;4902905;29;20211;-73
2023/07/18 03:07:19;;;;;;;1.63;1.37;;;;;;;;;;4894200;29;20187;-73
2023/07/18 03:09:44;;;;;;;4.47;1.40;;;;;;;;;;4902749;29;20267;-73
2023/07/18 03:12:10;;;;;;;3.37;1.53;;;;;;;;;;4911722;29;20207;-74
2023/07/18 03:14:35;;;;;;;2.33;1.67;;;;;;;;;;4893999;29;20261;-73
2023/07/18 03:17:01;;;;;;;1.93;1.40;;;;;;;;;;4911097;29;20271;-73
2023/07/18 03:19:26;;;;;;;10.07;1.93;;;;;;;;;;4899526;29;20184;-73
2023/07/18 03:21:52;;;;;;;3.53;2.23;;;;;;;;;;4909416;29;20200;-73
2023/07/18 03:24:17;;;;;;;2.63;2.33;;;;;;;;;;4890900;29;20187;-74
2023/07/18 03:26:42;;;;;;;4.20;2.30;;;;;;;;;;4913331;29;20185;-74
2023/07/18 03:29:07;;;;;;;6.17;2.50;;;;;;;;;;4908894;29;20208;-74
2023/07/18 03:31:33;;;;;;;3.87;1.73;;;;;;;;;;4899209;29;20303;-74
2023/07/18 03:33:58;;;;;;;1.50;1.40;;;;;;;;;;4892849;29;20196;-73
2023/07/18 03:36:24;;;;;;;3.03;1.50;;;;;;;;;;4894667;29;20279;-73
2023/07/18 03:38:49;;;;;;;2.47;1.47;;;;;;;;;;4914438;29;20275;-73
2023/07/18 03:41:14;;;;;;;1.87;1.50;;;;;;;;;;4896304;29;20205;-73
2023/07/18 03:43:39;;;;;;;3.73;1.80;;;;;;;;;;4895502;29;20187;-73
2023/07/18 03:46:04;;;;;;;6.53;1.97;;;;;;;;;;4910228;29;20198;-73
2023/07/18 03:48:30;;;;;;;4.63;1.80;;;;;;;;;;4903083;29;20175;-73
2023/07/18 03:50:55;;;;;;;4.83;1.90;;;;;;;;;;4911698;29;20183;-73
2023/07/18 03:53:20;;;;;;;2.80;1.57;;;;;;;;;;4902702;29;20209;-73
2023/07/18 03:55:45;;;;;;;1.57;1.47;;;;;;;;;;4895979;29;20194;-73
2023/07/18 03:58:10;;;;;;;5.23;1.83;;;;;;;;;;4902524;29;20290;-73
2023/07/18 04:00:36;;;;;;;4.03;2.37;;;;;;;;;;4904913;29;20302;-73
2023/07/18 04:03:01;;;;;;;2.93;1.80;;;;;;;;;;4908574;29;20187;-73
2023/07/18 04:05:26;;;;;;;2.83;1.60;;;;;;;;;;4891728;29;20183;-73
2023/07/18 04:07:52;;;;;;;4.57;2.17;;;;;;;;;;4904786;29;20270;-73
2023/07/18 04:10:17;;;;;;;2.67;1.70;;;;;;;;;;4892900;29;20295;-73
2023/07/18 04:12:42;;;;;;;3.63;1.63;;;;;;;;;;4900182;29;20222;-73
2023/07/18 04:15:08;;;;;;;5.03;2.00;;;;;;;;;;4896164;29;20184;-73
2023/07/18 04:17:34;;;;;;;2.60;1.70;;;;;;;;;;4894960;29;20226;-73
2023/07/18 04:19:59;;;;;;;2.57;1.80;;;;;;;;;;4900144;29;20215;-73
2023/07/18 04:22:25;;;;;;;3.07;1.57;;;;;;;;;;4907674;29;20215;-73
2023/07/18 04:24:50;;;;;;;3.30;1.70;;;;;;;;;;4897563;29;20187;-73
2023/07/18 04:27:16;;;;;;;3.87;2.20;;;;;;;;;;4906411;29;20247;-73
2023/07/18 04:29:41;;;;;;;4.03;1.50;;;;;;;;;;4894261;29;20196;-74
2023/07/18 04:32:06;;;;;;;3.20;1.97;;;;;;;;;;4905617;29;20318;-73
2023/07/18 04:34:32;;;;;;;3.47;2.60;;;;;;;;;;4889537;29;20183;-73
2023/07/18 04:36:57;;;;;;;4.47;2.43;;;;;;;;;;4902997;29;20196;-73
2023/07/18 04:39:22;;;;;;;4.30;3.30;;;;;;;;;;4895394;29;20183;-73
2023/07/18 04:41:48;;;;;;;7.93;3.60;;;;;;;;;;4907518;29;20191;-73
2023/07/18 04:44:13;;;;;;;4.37;2.40;;;;;;;;;;4895147;29;20186;-73
2023/07/18 04:46:38;;;;;;;5.17;3.60;;;;;;;;;;4894501;29;20223;-73
2023/07/18 04:49:04;;;;;;;8.97;4.53;;;;;;;;;;4904409;29;20205;-74
2023/07/18 04:51:29;;;;;;;8.20;4.10;;;;;;;;;;4887412;29;20208;-74
2023/07/18 04:53:54;;;;;;;5.77;3.40;;;;;;;;;;4909390;29;20207;-73
2023/07/18 04:56:20;;;;;;;9.20;4.13;;;;;;;;;;4890167;29;20177;-74
2023/07/18 04:58:45;;;;;;;6.27;4.17;;;;;;;;;;4906845;29;20186;-73
2023/07/18 05:01:10;;;;;;;6.03;4.03;;;;;;;;;;4907689;29;20184;-73
2023/07/18 05:03:36;;;;;;;7.67;4.20;;;;;;;;;;4911321;29;20226;-73
2023/07/18 05:06:01;;;;;;;5.87;3.43;;;;;;;;;;4909566;29;20190;-74
2023/07/18 05:08:26;;;;;;;3.07;2.77;;;;;;;;;;4903492;29;20185;-73
2023/07/18 05:10:52;;;;;;;4.80;2.83;;;;;;;;;;4915880;29;20184;-74
2023/07/18 05:13:17;;;;;;;6.57;5.90;;;;;;;;;;4906961;29;20219;-74
2023/07/18 05:15:42;;;;;;;3.40;1.97;;;;;;;;;;4909048;29;20188;-74
2023/07/18 05:18:07;;;;;;;4.60;1.80;;;;;;;;;;4905476;29;20180;-73
2023/07/18 05:20:33;;;;;;;4.17;2.10;;;;;;;;;;4904344;29;20279;-74
2023/07/18 05:22:58;;;;;;;3.83;2.00;;;;;;;;;;4913406;29;20187;-74
2023/07/18 05:25:23;;;;;;;1.73;1.60;;;;;;;;;;4898745;29;20179;-74
2023/07/18 05:27:49;;;;;;;4.27;2.20;;;;;;;;;;4910348;29;20213;-73
2023/07/18 05:30:18;;;;;;;3.23;1.73;;;;;;;;;;4898371;29;20217;-73
2023/07/18 05:32:44;;;;;;;2.80;1.90;;;;;;;;;;4911984;29;20239;-73
2023/07/18 05:35:11;;;;;;;5.30;3.03;;;;;;;;;;4907799;29;20214;-74
2023/07/18 05:37:36;;;;;;;4.07;2.13;;;;;;;;;;4906078;29;20231;-73
2023/07/18 05:40:03;;;;;;;4.17;2.13;;;;;;;;;;4906712;29;20301;-73
2023/07/18 05:42:28;;;;;;;4.53;1.80;;;;;;;;;;4909594;29;20283;-73
2023/07/18 05:44:53;;;;;;;2.40;1.90;;;;;;;;;;4912360;29;20271;-74
2023/07/18 05:47:19;;;;;;;4.97;1.97;;;;;;;;;;4906691;29;20196;-73
2023/07/18 05:49:44;;;;;;;4.90;2.10;;;;;;;;;;4906829;29;20220;-74
2023/07/18 05:52:09;;;;;;;4.37;1.50;;;;;;;;;;4885334;29;20289;-74
2023/07/18 05:54:34;;;;;;;2.97;1.93;;;;;;;;;;4889743;29;20182;-73
2023/07/18 05:56:59;;;;;;;4.43;2.10;;;;;;;;;;4910963;29;20188;-73
2023/07/18 05:59:28;;;;;;;3.93;1.80;;;;;;;;;;4911541;29;20233;-74
2023/07/18 06:01:53;;;;;;;4.00;1.50;;;;;;;;;;4913649;29;20187;-74
2023/07/18 06:04:18;;;;;;;3.43;1.60;;;;;;;;;;4909646;29;20177;-74
2023/07/18 06:06:44;;;;;;;3.83;1.50;;;;;;;;;;4908114;29;20184;-73
2023/07/18 06:09:10;;;;;;;2.20;1.97;;;;;;;;;;4902238;29;20179;-74
2023/07/18 06:11:35;;;;;;;4.80;2.50;;;;;;;;;;4911123;29;20302;-74
2023/07/18 06:14:01;;;;;;;2.93;1.57;;;;;;;;;;4913657;29;20213;-73
2023/07/18 06:16:27;;;;;;;2.20;1.77;;;;;;;;;;4909761;29;20225;-74
2023/07/18 06:18:52;;;;;;;2.07;1.50;;;;;;;;;;4911895;29;20273;-74
2023/07/18 06:21:17;;;;;;;4.80;2.10;;;;;;;;;;4908734;29;20281;-74
2023/07/18 06:23:42;;;;;;;2.83;2.00;;;;;;;;;;4908765;29;20186;-74
2023/07/18 06:26:08;;;;;;;4.60;2.17;;;;;;;;;;4912429;29;20220;-74
2023/07/18 06:28:33;;;;;;;2.67;2.00;;;;;;;;;;4910302;29;20267;-72
2023/07/18 06:30:58;;;;;;;2.60;1.90;;;;;;;;;;4907218;29;20199;-73
2023/07/18 06:33:23;;;;;;;4.10;1.60;;;;;;;;;;4910680;29;20175;-73
2023/07/18 06:35:56;;;;;;;1.70;1.43;;;;;;;;;;4913250;29;20183;-73
2023/07/18 06:38:22;;;;;;;4.10;1.73;;;;;;;;;;4916740;29;20207;-73
2023/07/18 06:40:48;;;;;;;2.20;1.90;;;;;;;;;;4916809;29;20218;-73
2023/07/18 06:43:13;;;;;;;6.47;2.10;;;;;;;;;;4914011;29;20298;-73
2023/07/18 06:45:38;;;;;;;4.50;1.80;;;;;;;;;;4911123;29;20256;-73
2023/07/18 06:48:05;;;;;;;4.03;1.93;;;;;;;;;;4905771;29;20199;-73
2023/07/18 06:50:30;;;;;;;3.13;1.73;;;;;;;;;;4900358;29;20218;-73
2023/07/18 06:52:56;;;;;;;2.33;2.03;;;;;;;;;;4911768;29;20246;-73
2023/07/18 06:55:21;;;;;;;2.60;1.90;;;;;;;;;;4919478;29;20187;-73
2023/07/18 06:57:46;;;;;;;9.60;2.33;;;;;;;;;;4923439;29;20180;-73
2023/07/18 07:00:15;;;;;;;2.97;1.60;;;;;;;;;;4906446;29;20313;-73
2023/07/18 07:02:41;;;;;;;5.43;1.73;;;;;;;;;;4917204;29;20198;-73
2023/07/18 07:05:06;;;;;;;4.53;1.97;;;;;;;;;;4916605;29;20184;-73
2023/07/18 07:07:32;;;;;;;2.63;1.73;;;;;;;;;;4918688;29;20191;-73
2023/07/18 07:09:57;;;;;;;2.43;1.70;;;;;;;;;;4907890;29;20207;-73
2023/07/18 07:12:22;;;;;;;6.33;2.37;;;;;;;;;;4904227;29;20304;-73
2023/07/18 07:14:47;;;;;;;3.67;1.60;;;;;;;;;;4912974;29;20204;-73
2023/07/18 07:17:13;;;;;;;5.63;1.80;;;;;;;;;;4907123;29;20186;-73
2023/07/18 07:19:39;;;;;;;2.93;1.63;;;;;;;;;;4912646;29;20180;-73
2023/07/18 07:22:04;;;;;;;6.60;1.97;;;;;;;;;;4917484;29;20196;-73
2023/07/18 07:24:30;;;;;;;3.93;1.43;;;;;;;;;;4920709;29;20177;-73
2023/07/18 07:26:55;;;;;;;5.67;2.30;;;;;;;;;;4913335;29;20192;-73
2023/07/18 07:29:21;;;;;;;5.30;1.83;;;;;;;;;;4915235;29;20190;-73
2023/07/18 07:31:46;;;;;;;4.23;1.97;;;;;;;;;;4926106;29;20200;-80
2023/07/18 07:34:11;;;;;;;3.13;1.63;;;;;;;;;;4914194;29;20277;-80
2023/07/18 07:36:36;;;;;;;2.80;1.77;;;;;;;;;;4917933;29;20185;-80
2023/07/18 07:39:03;;;;;;;7.10;2.00;;;;;;;;;;4917603;29;20182;-79
2023/07/18 07:41:28;;;;;;;2.43;1.97;;;;;;;;;;4910153;29;20297;-79
2023/07/18 07:43:53;;;;;;;3.00;1.60;;;;;;;;;;4911115;29;20203;-80
2023/07/18 07:46:18;;;;;;;3.53;1.87;;;;;;;;;;4916617;29;20191;-80
2023/07/18 07:48:44;;;;;;;2.20;1.83;;;;;;;;;;4892120;29;20205;-79
2023/07/18 07:51:12;;;;;;;2.27;1.73;;;;;;;;;;4909312;29;20252;-80
2023/07/18 07:53:37;;;;;;;2.40;1.83;;;;;;;;;;4901824;29;20254;-80
2023/07/18 07:56:03;;;;;;;1.90;1.60;;;;;;;;;;4905876;29;20186;-80
2023/07/18 07:58:28;;;;;;;2.40;1.70;;;;;;;;;;4912104;29;20188;-79
2023/07/18 08:01:35;;;;;;;2.67;1.73;;;;;;;;;;5074902;27;20594;-79
2023/07/18 08:04:00;;;;;;;2.83;1.50;;;;;;;;;;5065083;28;20186;-79
2023/07/18 08:06:26;;;;;;;4.07;1.90;;;;;;;;;;5061094;28;20183;-80
2023/07/18 08:08:51;;;;;;;5.47;1.87;;;;;;;;;;5054803;28;20189;-80
2023/07/18 08:11:17;;;;;;;5.47;1.67;;;;;;;;;;5053955;28;20184;-80
2023/07/18 08:13:42;;;;;;;4.13;2.00;;;;;;;;;;5061652;28;20246;-80
2023/07/18 08:16:07;;;;;;;3.20;1.60;;;;;;;;;;5057637;28;20206;-78
2023/07/18 08:18:34;;;;;;;2.13;1.73;;;;;;;;;;5055241;28;20192;-78
2023/07/18 08:20:59;;;;;;;3.60;1.80;;;;;;;;;;5053956;28;20273;-80
2023/07/18 08:23:24;;;;;;;3.20;1.80;;;;;;;;;;5059779;28;20184;-79
2023/07/18 08:25:49;;;;;;;3.13;1.77;;;;;;;;;;5059316;28;20184;-80
2023/07/18 08:28:15;;;;;;;1.50;1.40;;;;;;;;;;5065142;28;20214;-79
2023/07/18 08:30:40;;;;;;;2.33;1.57;;;;;;;;;;5057151;28;20187;-80
2023/07/18 08:33:05;;;;;;;1.67;1.53;;;;;;;;;;5062636;28;20175;-80
2023/07/18 08:35:31;;;;;;;3.23;1.70;;;;;;;;;;5054472;28;20189;-80
2023/07/18 08:37:56;;;;;;;3.40;1.80;;;;;;;;;;5059576;28;20175;-80
2023/07/18 08:40:22;;;;;;;2.50;2.13;;;;;;;;;;5064634;28;20197;-79
2023/07/18 08:42:47;;;;;;;5.97;1.93;;;;;;;;;;5054930;28;20271;-79
2023/07/18 08:45:13;;;;;;;3.93;2.10;;;;;;;;;;5060373;28;20178;-80
2023/07/18 08:47:39;;;;;;;3.37;2.20;;;;;;;;;;5059639;28;20185;-80
2023/07/18 08:50:04;;;;;;;2.57;1.80;;;;;;;;;;5060705;28;20196;-80
2023/07/18 08:52:29;;;;;;;3.27;1.93;;;;;;;;;;5064698;28;20213;-80
2023/07/18 08:54:54;;;;;;;2.73;2.30;;;;;;;;;;5059623;28;20202;-80
2023/07/18 08:57:20;;;;;;;2.87;2.10;;;;;;;;;;5063689;28;20173;-80
2023/07/18 08:59:46;;;;;;;34.97;7.40;;;;;;;;;;5056048;28;20276;-80
2023/07/18 09:02:11;;;;;;;3.15;2.20;;;;;;;;;;5055471;28;20185;-80
2023/07/18 09:04:37;;;;;;;3.95;2.75;;;;;;;;;;5062111;28;20174;-80
2023/07/18 09:07:02;;;;;;;2.58;2.20;;;;;;;;;;5059949;28;20174;-80
2023/07/18 09:09:28;;;;;;;6.28;2.72;;;;;;;;;;5057575;28;20189;-80
2023/07/18 09:11:54;;;;;;;4.18;2.30;;;;;;;;;;5051594;28;20213;-79
2023/07/18 09:14:33;;;;;;;3.75;2.20;;;;;;;;;;5040594;28;20173;-80
2023/07/18 09:16:59;;;;;;;5.53;2.40;;;;;;;;;;5047408;28;20179;-80
2023/07/18 09:19:44;;;;;;;3.05;2.40;;;;;;;;;;5035602;28;20213;-80
2023/07/18 09:22:11;;;;;;;2.95;2.45;;;;;;;;;;5041994;28;20179;-80
2023/07/18 09:24:37;;;;;;;5.13;2.50;;;;;;;;;;5045797;28;20178;-79
2023/07/18 09:27:06;;;;;;;3.42;2.65;;;;;;;;;;5044655;28;20182;-79
2023/07/18 09:29:32;;;;;;;2.58;2.10;;;;;;;;;;5044751;28;20178;-80
2023/07/18 09:31:57;;;;;;;3.58;2.25;;;;;;;;;;5049376;28;20178;-80
2023/07/18 09:34:23;;;;;;;3.05;2.50;;;;;;;;;;5044753;28;20174;-80
2023/07/18 09:36:57;;;;;;;4.07;2.40;;;;;;;;;;5037105;28;20187;-80
2023/07/18 09:39:22;;;;;;;4.68;2.67;;;;;;;;;;5045574;28;20179;-80
2023/07/18 09:41:48;;;;;;;3.10;2.80;;;;;;;;;;5051661;28;20175;-80
2023/07/18 09:44:14;;;;;;;3.40;2.88;;;;;;;;;;5045185;28;20265;-80
2023/07/18 09:46:40;;;;;;;4.22;3.00;;;;;;;;;;5035525;28;20194;-80
2023/07/18 09:49:05;;;;;;;7.00;5.13;;;;;;;;;;5048484;28;20249;-80
2023/07/18 09:51:33;;;;;;;3.97;2.53;;;;;;;;;;5046932;28;20174;-80
2023/07/18 09:53:58;;;;;;;4.40;3.00;;;;;;;;;;5045702;28;20194;-79
2023/07/18 09:56:26;;;;;;;3.13;2.65;;;;;;;;;;5048876;28;20231;-80
2023/07/18 09:58:52;;;;;;;4.18;2.90;;;;;;;;;;5043649;28;20175;-80
2023/07/18 10:01:20;;;;;;;3.25;2.78;;;;;;;;;;5044210;28;20221;-80
2023/07/18 10:03:46;;;;;;;4.60;3.00;;;;;;;;;;5043351;28;20178;-80
2023/07/18 10:06:13;;;;;;;6.97;2.88;;;;;;;;;;5039504;28;20182;-80
2023/07/18 10:08:39;;;;;;;3.97;3.25;;;;;;;;;;5043167;28;20202;-79
2023/07/18 10:11:07;;;;;;;4.15;3.05;;;;;;;;;;5044577;28;20202;-80
2023/07/18 10:13:40;;;;;;;3.20;2.90;;;;;;;;;;5045593;28;20170;-80
2023/07/18 10:16:11;;;;;;;5.60;2.90;;;;;;;;;;5038480;28;20174;-80
2023/07/18 10:18:43;;;;;;;10.45;3.30;;;;;;;;;;5044429;28;20216;-79
2023/07/18 10:21:11;;;;;;;7.65;3.80;;;;;;;;;;5035699;28;20270;-74
2023/07/18 10:23:42;;;;;;;4.35;2.58;;;;;;;;;;5040152;28;20182;-72
2023/07/18 10:26:07;;;;;;;26.88;6.30;;;;;;;;;;5043506;28;20175;-73
2023/07/18 10:28:43;;;;;;;5.20;3.60;;;;;;;;;;5039013;28;20198;-73
2023/07/18 10:31:08;;;;;;;5.45;2.67;;;;;;;;;;5046759;28;20178;-73
2023/07/18 10:33:33;;;;;;;5.13;2.50;;;;;;;;;;5044520;28;20194;-73
2023/07/18 10:35:58;;;;;;;3.75;2.35;;;;;;;;;;5041054;28;20186;-73
2023/07/18 10:38:33;;;;;;;3.38;3.08;;;;;;;;;;5044916;28;20186;-73
2023/07/18 10:40:58;;;;;;;4.28;3.33;;;;;;;;;;5043552;28;20202;-73
2023/07/18 10:43:24;;;;;;;3.85;2.67;;;;;;;;;;5035610;28;20241;-73
2023/07/18 10:45:49;;;;;;;3.10;2.65;;;;;;;;;;5045487;28;20178;-73
2023/07/18 10:48:14;;;;;;;5.22;2.90;;;;;;;;;;5044504;28;20193;-72
2023/07/18 10:50:40;;;;;;;3.55;2.80;;;;;;;;;;5037775;28;20179;-73
2023/07/18 10:53:05;;;;;;;4.50;2.83;;;;;;;;;;5041797;28;20237;-72
2023/07/18 10:55:31;;;;;;;4.07;3.20;;;;;;;;;;5042911;28;20277;-73
2023/07/18 10:57:56;;;;;;;3.38;2.58;;;;;;;;;;5045429;28;20206;-73
2023/07/18 11:00:24;;;;;;;7.35;3.25;;;;;;;;;;5040023;28;20225;-72
2023/07/18 11:02:49;;;;;;;3.17;2.88;;;;;;;;;;5042573;28;20217;-73
2023/07/18 11:05:14;;;;;;;4.28;2.95;;;;;;;;;;5048268;28;20177;-73
2023/07/18 11:07:41;;;;;;;4.22;2.75;;;;;;;;;;5040680;28;20235;-73
2023/07/18 11:10:07;;;;;;;4.47;3.00;;;;;;;;;;5042938;28;20186;-73
2023/07/18 11:12:32;;;;;;;14.07;4.43;;;;;;;;;;5047772;28;20178;-73
2023/07/18 11:14:57;;;;;;;3.47;3.17;;;;;;;;;;5041821;28;20171;-73
2023/07/18 11:17:23;;;;;;;6.28;3.45;;;;;;;;;;5047992;28;20173;-73
2023/07/18 11:19:48;;;;;;;5.10;3.42;;;;;;;;;;5045898;28;20193;-73
2023/07/18 11:22:14;;;;;;;6.55;3.45;;;;;;;;;;5043925;28;20185;-73
2023/07/18 11:24:43;;;;;;;4.10;2.63;;;;;;;;;;5045319;28;20186;-73
2023/07/18 11:27:22;;;;;;;4.65;3.08;;;;;;;;;;5043768;28;20174;-73
2023/07/18 11:30:00;;;;;;;4.55;2.63;;;;;;;;;;5046787;28;20174;-73
2023/07/18 11:32:38;;;;;;;5.30;2.88;;;;;;;;;;5043917;28;20216;-73
2023/07/18 11:35:06;;;;;;;5.60;2.42;;;;;;;;;;5044250;28;20174;-73
2023/07/18 11:37:31;;;;;;;6.15;2.45;;;;;;;;;;5044863;28;20182;-73
2023/07/18 11:39:57;;;;;;;5.07;3.05;;;;;;;;;;5044760;28;20263;-73
2023/07/18 11:42:24;;;;;;;3.38;2.47;;;;;;;;;;5046294;28;20189;-73
2023/07/18 11:44:52;;;;;;;5.88;2.50;;;;;;;;;;5045899;28;20214;-73
2023/07/18 11:47:18;;;;;;;3.35;3.00;;;;;;;;;;5042562;28;20201;-73
2023/07/18 11:49:44;;;;;;;4.82;2.72;;;;;;;;;;5045946;28;20178;-73
2023/07/18 11:52:10;;;;;;;4.20;2.40;;;;;;;;;;5038474;28;20190;-73
2023/07/18 11:54:35;;;;;;;6.85;2.63;;;;;;;;;;5048148;28;20182;-73
2023/07/18 11:57:01;;;;;;;5.70;2.47;;;;;;;;;;5043647;28;20183;-73
2023/07/18 11:59:26;;;;;;;4.47;2.60;;;;;;;;;;5042431;28;20247;-73
2023/07/18 12:01:51;;;;;;;4.32;2.58;;;;;;;;;;5040708;28;20189;-73
2023/07/18 12:04:16;;;;;;;3.45;2.58;;;;;;;;;;5042054;28;20166;-73
2023/07/18 12:06:42;;;;;;;3.53;2.97;;;;;;;;;;5043933;28;20179;-73
2023/07/18 12:09:07;;;;;;;3.38;2.83;;;;;;;;;;5047635;28;20198;-73
2023/07/18 12:11:33;;;;;;;2.78;2.38;;;;;;;;;;5041855;28;20183;-72
2023/07/18 12:14:00;;;;;;;3.22;2.88;;;;;;;;;;5046056;28;20188;-73
2023/07/18 12:16:25;;;;;;;5.53;2.80;;;;;;;;;;5037402;28;20174;-73
2023/07/18 12:18:50;;;;;;;10.68;3.25;;;;;;;;;;5044826;28;20178;-73
2023/07/18 12:21:15;;;;;;;3.50;2.70;;;;;;;;;;5041956;28;20205;-73
2023/07/18 12:23:41;;;;;;;4.60;2.92;;;;;;;;;;5037639;28;20175;-73
2023/07/18 12:26:06;;;;;;;4.03;3.20;;;;;;;;;;5044778;28;20174;-73
2023/07/18 12:28:31;;;;;;;3.70;2.80;;;;;;;;;;5043693;28;20213;-73
2023/07/18 12:30:57;;;;;;;6.88;3.47;;;;;;;;;;5040055;28;20183;-73
2023/07/18 12:33:23;;;;;;;3.15;2.85;;;;;;;;;;5043440;28;20178;-73
2023/07/18 12:35:49;;;;;;;3.60;2.63;;;;;;;;;;5033121;28;20247;-73
2023/07/18 12:38:14;;;;;;;6.80;3.38;;;;;;;;;;5047819;28;20296;-73
2023/07/18 12:40:39;;;;;;;4.63;3.38;;;;;;;;;;5044020;28;20285;-73
2023/07/18 12:43:05;;;;;;;5.63;3.58;;;;;;;;;;5040377;28;20246;-73
2023/07/18 12:45:30;;;;;;;4.10;3.17;;;;;;;;;;5045806;28;20312;-73
2023/07/18 12:47:55;;;;;;;3.45;3.15;;;;;;;;;;5049853;28;20193;-73
2023/07/18 12:50:20;;;;;;;6.38;3.35;;;;;;;;;;5043162;28;20187;-73
2023/07/18 12:52:45;;;;;;;3.17;2.80;;;;;;;;;;5044152;28;20198;-73
2023/07/18 12:55:11;;;;;;;3.95;3.50;;;;;;;;;;5049560;28;20502;-73
2023/07/18 12:57:36;;;;;;;6.40;3.92;;;;;;;;;;5046452;28;20251;-73
2023/07/18 13:00:01;;;;;;;3.25;2.95;;;;;;;;;;5043480;28;20293;-73
2023/07/18 13:02:27;;;;;;;4.43;3.08;;;;;;;;;;5047643;28;20178;-74
2023/07/18 13:04:52;;;;;;;4.13;3.35;;;;;;;;;;5045547;28;20179;-73
2023/07/18 13:07:18;;;;;;;4.80;3.50;;;;;;;;;;5043190;28;20188;-73
2023/07/18 13:09:43;;;;;;;20.45;5.15;;;;;;;;;;5035722;28;20241;-72
2023/07/18 13:12:08;;;;;;;5.68;3.25;;;;;;;;;;5047798;28;20190;-73
2023/07/18 13:14:34;;;;;;;3.97;3.28;;;;;;;;;;5045686;28;20174;-73
2023/07/18 13:16:59;;;;;;;5.05;3.35;;;;;;;;;;5050459;28;20178;-73
2023/07/18 13:19:25;;;;;;;6.40;2.80;;;;;;;;;;5042794;28;20182;-73
2023/07/18 13:21:50;;;;;;;3.83;2.75;;;;;;;;;;5044767;28;20183;-73
2023/07/18 13:24:15;;;;;;;8.30;3.22;;;;;;;;;;5045441;28;20205;-73
2023/07/18 13:26:43;;;;;;;5.95;3.33;;;;;;;;;;5053373;28;20182;-72
2023/07/18 13:29:08;;;;;;;3.60;3.00;;;;;;;;;;5043929;28;20179;-73
2023/07/18 13:31:34;;;;;;;3.33;3.00;;;;;;;;;;5047833;28;20178;-72
2023/07/18 13:34:00;;;;;;;4.00;3.17;;;;;;;;;;5043063;28;20189;-73
2023/07/18 13:36:25;;;;;;;3.97;3.25;;;;;;;;;;5044512;28;20304;-73
2023/07/18 13:38:50;;;;;;;3.67;2.97;;;;;;;;;;5044578;28;20250;-73
2023/07/18 13:41:16;;;;;;;3.90;3.03;;;;;;;;;;5045980;28;20208;-73
2023/07/18 13:43:42;;;;;;;6.50;2.97;;;;;;;;;;5036950;28;20175;-73
2023/07/18 13:46:07;;;;;;;3.10;2.83;;;;;;;;;;5046627;28;20186;-73
2023/07/18 13:48:33;;;;;;;5.75;3.65;;;;;;;;;;5050961;28;20182;-73
2023/07/18 13:50:59;;;;;;;4.28;3.30;;;;;;;;;;5042802;28;20179;-73
2023/07/18 13:53:24;;;;;;;6.07;3.10;;;;;;;;;;5046068;28;20240;-72
2023/07/18 13:55:49;;;;;;;3.72;3.40;;;;;;;;;;5047896;28;20170;-73
2023/07/18 13:58:15;;;;;;;4.47;4.07;;;;;;;;;;5043615;28;20359;-73
2023/07/18 14:00:40;;;;;;;9.93;3.67;;;;;;;;;;5040851;28;20305;-73
2023/07/18 14:03:06;;;;;;;9.20;3.67;;;;;;;;;;5046730;28;20179;-73
2023/07/18 14:05:31;;;;;;;8.60;3.95;;;;;;;;;;5043786;28;20235;-73
2023/07/18 14:07:56;;;;;;;4.20;3.80;;;;;;;;;;5040751;28;20281;-73
2023/07/18 14:10:23;;;;;;;8.82;3.95;;;;;;;;;;5038810;28;20205;-73
2023/07/18 14:12:48;;;;;;;14.13;4.50;;;;;;;;;;5040591;28;20190;-72
2023/07/18 14:15:13;;;;;;;4.68;4.03;;;;;;;;;;5049953;28;20174;-73
2023/07/18 14:17:39;;;;;;;5.80;3.55;;;;;;;;;;5044117;28;20190;-72
2023/07/18 14:20:05;;;;;;;4.60;3.80;;;;;;;;;;5049052;28;20198;-73
2023/07/18 14:22:31;;;;;;;5.38;3.35;;;;;;;;;;5043303;28;20179;-73
2023/07/18 14:24:56;;;;;;;8.95;4.25;;;;;;;;;;5045484;28;20183;-73
2023/07/18 14:27:21;;;;;;;4.15;3.10;;;;;;;;;;5044232;28;20179;-73
2023/07/18 14:29:46;;;;;;;7.90;4.18;;;;;;;;;;5047062;28;20189;-72
2023/07/18 14:32:11;;;;;;;4.35;3.67;;;;;;;;;;5038308;28;20210;-73
2023/07/18 14:34:37;;;;;;;6.30;3.80;;;;;;;;;;5042863;28;20216;-73